Airfield :
LOGIN :

Register | Disclaimer

   EN    FR    IT 

 










Legend :    VFR   Marginal VFR   IFR   Intensive IFR   Very Intensive IFR
Visi :
Ceiling :
>= 8 km
>= 3000ft
5 to 8 km
1000 to 3000 ft
1500m to 5 km
500 to 1000 ft
800 to 1500m
200 to 500 ft
< 800m
< 200 ft
Symbols :   Thunderstorms  Fog  Heavy snow  Heavy precipitations  Wind > 20 kt
SIGMETs :     Misc.  Thunderstorms  Icing  Turbulence  Mountain Waves  Volcanic Ashes






- Airport Elevation : 433 ft
- IATA code : CCF


LFMK - Carcassonne

CURRENT METAR :
  • 240930Z AUTO 16003KT 110V200 9999 BKN006 BKN011 07/06 Q1021 TEMPO 4000 BR BKN004

EXPIRED METARs :
  • 240900Z AUTO 17003KT 130V200 9999 SCT007 06/05 Q1021 TEMPO 4000 BR BKN004
  • 240830Z AUTO 17003KT 130V210 9999 SCT008 05/05 Q1021 TEMPO 4000 BR BKN004
  • 240800Z AUTO 16003KT 130V200 9000 NSC 06/05 Q1021 TEMPO DZ BKN005 BKN015
  • 240730Z AUTO 16002KT 9000 BKN007 06/05 Q1021 TEMPO DZ BECMG 09010KT
  • 240700Z AUTO 14003KT 100V160 9999 BKN004 07/06 Q1021 TEMPO DZ BKN005 BKN015

TAF TAF LFMK
Valid from the 24 at 09:00 until the 25 at 09:00 UTC


240800Z 2409/2509 12012KT CAVOK
TEMPO 2409/2412 4000 BR BKN004
TEMPO 2416/2509 RA OVC010



MET'MAP, your aeronautical weather chart ! - Copyright ORBIFLY December 2007 - Disclaimer

ORBIFLY MET'MAP TEAM :

Programming & Development : Alexandra Zaïnal
Concept & original design : Baudouin d'Aumeries
Assistance for programming : Marc-Olivier Méhu
Technical & hardware support : Manuel Goepfert

Contact : metmap@orbifly.com




SOURCES & CREDITS :

   NOAA